createdAt,value
2022-10-07T00:02:17.041Z,4.68
2022-10-07T00:04:46.821Z,5.13
2022-10-07T00:07:16.129Z,5.80
2022-10-07T00:09:45.280Z,4.80
2022-10-07T00:12:15.676Z,5.13
2022-10-07T00:14:44.775Z,4.30
2022-10-07T00:17:14.957Z,5.47
2022-10-07T00:19:43.899Z,5.03
2022-10-07T00:22:14.325Z,5.43
2022-10-07T00:24:43.331Z,4.85
2022-10-07T00:27:12.217Z,5.95
2022-10-07T00:29:40.859Z,7.45
2022-10-07T00:32:10.525Z,3.55
2022-10-07T00:34:41.137Z,6.07
2022-10-07T00:37:10.335Z,7.15
2022-10-07T00:39:39.291Z,4.53
2022-10-07T00:42:08.187Z,4.10
2022-10-07T00:44:43.379Z,4.93
2022-10-07T00:47:24.217Z,7.28
2022-10-07T00:50:02.135Z,6.07
2022-10-07T00:52:41.343Z,6.70
2022-10-07T00:55:14.337Z,5.93
2022-10-07T00:57:45.425Z,5.93
2022-10-07T01:00:15.887Z,6.18
2022-10-07T01:02:46.367Z,5.53
2022-10-07T01:05:17.897Z,5.10
2022-10-07T01:07:48.418Z,6.65
2022-10-07T01:10:20.350Z,6.90
2022-10-07T01:13:05.677Z,5.18
2022-10-07T01:15:40.757Z,3.38
2022-10-07T01:18:19.717Z,4.43
2022-10-07T01:20:58.058Z,5.72
2022-10-07T01:23:49.051Z,3.10
2022-10-07T01:26:48.030Z,5.35
2022-10-07T01:29:23.102Z,6.05
2022-10-07T01:31:57.837Z,4.80
2022-10-07T01:34:28.430Z,6.03
2022-10-07T01:36:59.404Z,5.18
2022-10-07T01:39:33.575Z,4.28
2022-10-07T01:42:03.872Z,3.13
2022-10-07T01:44:33.100Z,4.00
2022-10-07T01:47:02.171Z,3.95
2022-10-07T01:49:31.806Z,5.90
2022-10-07T01:52:18.205Z,5.88
2022-10-07T01:55:05.217Z,3.45
2022-10-07T01:57:43.954Z,3.30
2022-10-07T02:00:14.139Z,5.70
2022-10-07T02:02:55.215Z,6.32
2022-10-07T02:05:33.759Z,4.80
2022-10-07T02:08:17.802Z,3.13
2022-10-07T02:11:02.753Z,4.97
2022-10-07T02:13:39.510Z,4.45
2022-10-07T02:16:36.799Z,4.40
2022-10-07T02:19:11.115Z,3.75
2022-10-07T02:21:41.094Z,5.28
2022-10-07T02:24:12.876Z,3.55
2022-10-07T02:26:44.417Z,4.45
2022-10-07T02:29:21.421Z,4.22
2022-10-07T02:31:54.009Z,4.47
2022-10-07T02:34:26.160Z,4.15
2022-10-07T02:36:58.762Z,5.38
2022-10-07T02:39:30.713Z,3.60
2022-10-07T02:42:05.948Z,4.80
2022-10-07T02:44:44.473Z,3.00
2022-10-07T02:47:19.059Z,3.72
2022-10-07T02:49:53.330Z,5.22
2022-10-07T02:52:23.617Z,5.38
2022-10-07T02:54:59.605Z,4.68
2022-10-07T02:57:36.451Z,6.32
2022-10-07T03:00:11.090Z,2.90
2022-10-07T03:02:53.252Z,4.28
2022-10-07T03:05:26.204Z,2.95
2022-10-07T03:08:01.735Z,4.07
2022-10-07T03:10:30.515Z,3.80
2022-10-07T03:12:59.711Z,4.25
2022-10-07T03:15:30.160Z,4.47
2022-10-07T03:17:59.012Z,6.65
2022-10-07T03:20:30.810Z,3.13
2022-10-07T03:23:00.396Z,4.55
2022-10-07T03:25:29.511Z,5.55
2022-10-07T03:27:58.616Z,3.95
2022-10-07T03:30:29.587Z,2.35
2022-10-07T03:32:58.539Z,3.55
2022-10-07T03:35:27.912Z,3.97
2022-10-07T03:37:56.805Z,4.63
2022-10-07T03:40:25.487Z,4.53
2022-10-07T03:42:54.238Z,2.45
2022-10-07T03:45:23.038Z,3.35
2022-10-07T03:47:53.308Z,3.42
2022-10-07T03:50:22.284Z,5.03
2022-10-07T03:52:51.921Z,5.22
2022-10-07T03:55:20.877Z,3.17
2022-10-07T03:57:57.019Z,3.47
2022-10-07T04:00:29.725Z,2.92
2022-10-07T04:03:01.404Z,2.85
2022-10-07T04:05:30.542Z,5.63
2022-10-07T04:07:59.804Z,4.53
2022-10-07T04:10:28.692Z,4.20
2022-10-07T04:12:57.555Z,3.60
2022-10-07T04:15:26.678Z,3.72
2022-10-07T04:18:00.162Z,5.20
2022-10-07T04:20:32.738Z,4.28
2022-10-07T04:23:01.923Z,4.97
2022-10-07T04:25:38.615Z,3.67
2022-10-07T04:28:18.177Z,4.75
2022-10-07T04:30:51.469Z,4.07
2022-10-07T04:33:25.548Z,4.90
2022-10-07T04:35:58.318Z,4.07
2022-10-07T04:38:28.516Z,4.85
2022-10-07T04:41:05.386Z,6.38
2022-10-07T04:43:35.495Z,3.58
2022-10-07T04:46:09.969Z,3.50
2022-10-07T04:48:46.761Z,4.60
2022-10-07T04:51:19.754Z,4.72
2022-10-07T04:53:56.834Z,2.58
2022-10-07T04:56:42.078Z,4.18
2022-10-07T04:59:13.649Z,4.28
2022-10-07T05:01:44.208Z,1.95
2022-10-07T05:04:13.009Z,4.95
2022-10-07T05:06:43.182Z,2.95
2022-10-07T05:09:13.037Z,3.55
2022-10-07T05:11:45.529Z,3.63
2022-10-07T05:14:21.444Z,3.72
2022-10-07T05:16:52.233Z,4.13
2022-10-07T05:19:23.693Z,6.57
2022-10-07T05:21:54.643Z,4.05
2022-10-07T05:24:23.742Z,5.28
2022-10-07T05:26:52.593Z,2.70
2022-10-07T05:29:21.264Z,4.47
2022-10-07T05:31:54.216Z,3.55
2022-10-07T05:34:26.160Z,5.25
2022-10-07T05:36:59.285Z,4.20
2022-10-07T05:39:28.678Z,4.65
2022-10-07T05:42:03.198Z,4.10
2022-10-07T05:44:38.637Z,4.47
2022-10-07T05:47:08.496Z,5.20
2022-10-07T05:49:37.242Z,4.10
2022-10-07T05:52:08.091Z,6.35
2022-10-07T05:54:37.852Z,2.95
2022-10-07T05:57:06.823Z,5.28
2022-10-07T05:59:36.412Z,4.15
2022-10-07T06:02:06.038Z,7.13
2022-10-07T06:04:35.554Z,4.63
2022-10-07T06:07:05.505Z,6.15
2022-10-07T06:09:54.382Z,6.10
2022-10-07T06:12:41.496Z,5.47
2022-10-07T06:15:14.117Z,5.30
2022-10-07T06:17:46.943Z,5.15
2022-10-07T06:20:19.415Z,4.10
2022-10-07T06:22:50.062Z,4.93
2022-10-07T06:25:22.359Z,4.07
2022-10-07T06:27:54.478Z,5.78
2022-10-07T06:30:26.217Z,4.63
2022-10-07T06:32:57.792Z,3.40
2022-10-07T06:35:27.293Z,3.53
2022-10-07T06:37:57.184Z,3.92
2022-10-07T06:40:27.388Z,2.83
2022-10-07T06:42:56.262Z,4.75
2022-10-07T06:45:37.214Z,4.32
2022-10-07T06:48:06.823Z,3.42
2022-10-07T06:50:36.544Z,3.85
2022-10-07T06:53:05.678Z,4.65
2022-10-07T06:55:38.353Z,4.50
2022-10-07T06:58:11.634Z,5.72
2022-10-07T07:00:41.784Z,5.15
2022-10-07T07:03:12.453Z,4.38
2022-10-07T07:05:45.306Z,3.72
2022-10-07T07:08:18.109Z,4.18
2022-10-07T07:10:48.516Z,4.55
2022-10-07T07:13:18.239Z,4.90
2022-10-07T07:15:56.280Z,3.58
2022-10-07T07:18:26.910Z,3.38
2022-10-07T07:20:55.682Z,5.07
2022-10-07T07:23:26.532Z,4.07
2022-10-07T07:25:56.859Z,4.07
2022-10-07T07:28:25.676Z,4.15
2022-10-07T07:30:54.696Z,5.13
2022-10-07T07:33:23.545Z,4.10
2022-10-07T07:35:52.621Z,4.63
2022-10-07T07:38:24.797Z,4.20
2022-10-07T07:40:57.242Z,5.30
2022-10-07T07:43:26.299Z,4.22
2022-10-07T07:45:55.474Z,2.97
2022-10-07T07:48:24.809Z,4.32
2022-10-07T07:50:54.421Z,3.30
2022-10-07T07:53:23.564Z,3.28
2022-10-07T07:55:58.791Z,3.80
2022-10-07T07:58:30.137Z,4.03
2022-10-07T08:01:00.677Z,2.53
2022-10-07T08:03:30.433Z,2.70
2022-10-07T08:06:03.208Z,3.58
2022-10-07T08:08:33.872Z,3.47
2022-10-07T08:11:10.288Z,2.88
2022-10-07T08:13:41.414Z,2.92
2022-10-07T08:16:14.749Z,3.00
2022-10-07T08:18:47.435Z,2.72
2022-10-07T08:21:18.281Z,2.90
2022-10-07T08:23:52.978Z,3.17
2022-10-07T08:26:24.490Z,3.83
2022-10-07T08:28:53.860Z,1.77
2022-10-07T08:31:23.548Z,2.80
2022-10-07T08:33:52.877Z,3.17
2022-10-07T08:36:23.514Z,2.55
2022-10-07T08:38:52.692Z,3.65
2022-10-07T08:41:36.342Z,3.22
2022-10-07T08:44:18.157Z,1.98
2022-10-07T08:46:55.511Z,1.98
2022-10-07T08:49:31.812Z,2.92
2022-10-07T08:52:04.892Z,2.20
2022-10-07T08:54:35.513Z,2.72
2022-10-07T08:57:13.654Z,3.10
2022-10-07T08:59:47.910Z,3.08
2022-10-07T09:02:29.735Z,1.92
2022-10-07T09:05:16.548Z,2.03
2022-10-07T09:07:50.149Z,2.58
2022-10-07T09:10:30.152Z,1.55
2022-10-07T09:13:03.694Z,3.03
2022-10-07T09:15:40.656Z,3.00
2022-10-07T09:18:20.934Z,2.65
2022-10-07T09:20:53.699Z,3.78
2022-10-07T09:23:24.947Z,3.42
2022-10-07T09:25:53.932Z,3.35
2022-10-07T09:28:30.717Z,2.22
2022-10-07T09:31:01.065Z,3.20
2022-10-07T09:33:30.369Z,2.88
2022-10-07T09:36:05.690Z,3.55
2022-10-07T09:38:38.815Z,3.17
2022-10-07T09:41:19.643Z,2.60
2022-10-07T09:44:22.599Z,2.40
2022-10-07T09:46:53.873Z,2.22
2022-10-07T09:49:32.922Z,2.22
2022-10-07T09:52:02.819Z,1.58
2022-10-07T09:54:34.087Z,1.58
2022-10-07T09:57:04.853Z,2.63
2022-10-07T09:59:36.459Z,1.85
2022-10-07T10:02:21.495Z,2.03
2022-10-07T10:04:52.679Z,2.20
2022-10-07T10:07:26.166Z,1.48
2022-10-07T10:09:58.947Z,2.75
2022-10-07T10:12:28.389Z,2.22
2022-10-07T10:15:01.230Z,1.70
2022-10-07T10:17:39.391Z,1.33
2022-10-07T10:20:29.671Z,2.75
2022-10-07T10:22:59.358Z,2.95
2022-10-07T10:26:03.063Z,1.77
2022-10-07T10:28:45.081Z,1.25
2022-10-07T10:31:22.849Z,2.15
2022-10-07T10:33:55.837Z,1.75
2022-10-07T10:36:27.230Z,0.85
2022-10-07T10:39:02.625Z,1.92
2022-10-07T10:41:40.370Z,1.35
2022-10-07T10:44:23.615Z,1.77
2022-10-07T10:47:02.285Z,2.25
2022-10-07T10:49:34.829Z,1.73
2022-10-07T10:52:32.517Z,2.58
2022-10-07T10:55:17.941Z,1.88
2022-10-07T10:58:00.654Z,1.42
2022-10-07T11:00:37.160Z,2.05
2022-10-07T11:03:39.415Z,1.48
2022-10-07T11:06:13.671Z,1.88
2022-10-07T11:08:43.915Z,2.13
2022-10-07T11:11:16.774Z,2.95
2022-10-07T11:13:50.558Z,2.33
2022-10-07T11:16:24.650Z,1.73
2022-10-07T11:19:01.031Z,1.40
2022-10-07T11:21:35.879Z,1.50
2022-10-07T11:24:10.526Z,2.55
2022-10-07T11:26:45.008Z,2.63
2022-10-07T11:29:23.860Z,2.22
2022-10-07T11:31:58.996Z,2.22
2022-10-07T11:34:41.755Z,2.30
2022-10-07T11:37:17.394Z,1.60
2022-10-07T11:39:46.314Z,0.98
2022-10-07T11:42:21.048Z,1.52
2022-10-07T11:44:59.293Z,1.85
2022-10-07T11:47:34.121Z,2.33
2022-10-07T11:50:08.260Z,2.10
2022-10-07T11:52:43.140Z,1.67
2022-10-07T11:55:21.165Z,2.03
2022-10-07T11:57:54.936Z,2.10
2022-10-07T12:00:27.217Z,2.80
2022-10-07T12:02:56.594Z,3.20
2022-10-07T12:06:08.020Z,2.60
2022-10-07T12:08:38.637Z,1.55
2022-10-07T12:11:44.385Z,2.83
2022-10-07T12:14:36.536Z,2.10
2022-10-07T12:17:28.363Z,2.67
2022-10-07T12:20:37.409Z,2.25
2022-10-07T12:23:39.829Z,2.60
2022-10-07T12:26:46.318Z,2.90
2022-10-07T12:29:58.925Z,2.45
2022-10-07T12:32:48.763Z,2.10
2022-10-07T12:35:53.913Z,2.17
2022-10-07T12:38:28.661Z,1.95
2022-10-07T12:41:26.923Z,2.00
2022-10-07T12:44:06.433Z,1.67
2022-10-07T12:46:40.802Z,1.65
2022-10-07T12:49:19.374Z,3.88
2022-10-07T12:51:48.722Z,2.10
2022-10-07T12:54:21.785Z,1.50
2022-10-07T12:56:51.515Z,2.40
2022-10-07T12:59:47.637Z,2.33
2022-10-07T13:03:10.465Z,2.05
2022-10-07T13:06:10.167Z,1.98
2022-10-07T13:09:06.712Z,2.55
2022-10-07T13:12:07.946Z,2.78
2022-10-07T13:14:48.234Z,2.10
2022-10-07T13:17:36.703Z,2.58
2022-10-07T13:20:26.063Z,2.85
2022-10-07T13:22:55.368Z,1.20
2022-10-07T13:25:24.203Z,1.88
2022-10-07T13:27:57.075Z,1.80
2022-10-07T13:30:40.597Z,2.75
2022-10-07T13:33:34.361Z,2.13
2022-10-07T13:36:15.929Z,1.58
2022-10-07T13:38:46.398Z,1.50
2022-10-07T13:41:27.793Z,2.03
2022-10-07T13:44:00.639Z,1.50
2022-10-07T13:46:35.102Z,2.03
2022-10-07T13:49:04.851Z,2.08
2022-10-07T13:51:36.318Z,1.58
2022-10-07T13:54:08.106Z,1.40
2022-10-07T13:56:42.808Z,1.25
2022-10-07T13:59:18.725Z,2.35
2022-10-07T14:01:52.007Z,2.05
2022-10-07T14:04:27.040Z,1.98
2022-10-07T14:07:00.093Z,1.80
2022-10-07T14:09:39.270Z,1.10
2022-10-07T14:12:12.346Z,1.83
2022-10-07T14:14:44.348Z,1.65
2022-10-07T14:17:25.864Z,1.88
2022-10-07T14:19:57.665Z,1.98
2022-10-07T14:22:31.541Z,2.08
2022-10-07T14:25:03.655Z,1.58
2022-10-07T14:27:54.188Z,1.90
2022-10-07T14:30:55.765Z,1.67
2022-10-07T14:33:48.822Z,2.13
2022-10-07T14:36:20.027Z,1.15
2022-10-07T14:38:50.467Z,1.45
2022-10-07T14:41:20.953Z,2.05
2022-10-07T14:43:52.038Z,1.63
2022-10-07T14:46:22.711Z,2.25
2022-10-07T14:48:54.243Z,1.48
2022-10-07T14:51:27.087Z,1.25
2022-10-07T14:53:59.431Z,2.30
2022-10-07T14:56:31.151Z,1.45
2022-10-07T14:59:03.589Z,2.15
2022-10-07T15:01:32.443Z,1.38
2022-10-07T15:04:02.723Z,1.88
2022-10-07T15:06:31.575Z,1.67
2022-10-07T15:09:01.539Z,2.10
2022-10-07T15:11:30.530Z,1.45
2022-10-07T15:13:59.566Z,2.88
2022-10-07T15:16:29.618Z,2.20
2022-10-07T15:18:58.867Z,1.90
2022-10-07T15:21:29.915Z,1.35
2022-10-07T15:23:58.859Z,2.22
2022-10-07T15:26:28.036Z,1.73
2022-10-07T15:29:00.434Z,1.52
2022-10-07T15:31:30.594Z,2.60
2022-10-07T15:33:59.504Z,1.75
2022-10-07T15:36:32.242Z,2.05
2022-10-07T15:39:02.510Z,1.75
2022-10-07T15:41:34.721Z,1.92
2022-10-07T15:44:05.671Z,1.65
2022-10-07T15:46:35.134Z,1.98
2022-10-07T15:49:05.647Z,2.75
2022-10-07T15:51:36.763Z,1.83
2022-10-07T15:54:06.712Z,3.47
2022-10-07T15:56:35.923Z,2.70
2022-10-07T15:59:06.317Z,2.00
2022-10-07T16:01:36.789Z,2.55
2022-10-07T16:04:07.640Z,2.30
2022-10-07T16:06:38.788Z,2.15
2022-10-07T16:09:08.031Z,1.95
2022-10-07T16:11:36.838Z,2.50
2022-10-07T16:14:06.897Z,3.70
2022-10-07T16:16:38.144Z,3.25
2022-10-07T16:19:08.735Z,2.38
2022-10-07T16:21:40.552Z,3.92
2022-10-07T16:24:14.772Z,2.63
2022-10-07T16:26:44.167Z,3.53
2022-10-07T16:29:33.394Z,3.33
2022-10-07T16:32:02.551Z,2.38
2022-10-07T16:34:31.317Z,2.63
2022-10-07T16:37:01.440Z,2.38
2022-10-07T16:39:30.319Z,2.60
2022-10-07T16:41:59.866Z,2.47
2022-10-07T16:44:30.263Z,2.40
2022-10-07T16:47:00.798Z,2.72
2022-10-07T16:49:30.564Z,2.83
2022-10-07T16:52:00.722Z,3.13
2022-10-07T16:54:32.439Z,2.75
2022-10-07T16:57:01.491Z,4.05
2022-10-07T16:59:30.980Z,2.50
2022-10-07T17:02:02.738Z,2.00
2022-10-07T17:04:32.527Z,2.17
2022-10-07T17:07:06.108Z,2.83
2022-10-07T17:09:34.955Z,3.10
2022-10-07T17:12:04.643Z,3.10
2022-10-07T17:14:33.908Z,2.58
2022-10-07T17:17:04.175Z,2.53
2022-10-07T17:19:33.787Z,2.45
2022-10-07T17:22:04.314Z,3.03
2022-10-07T17:24:33.031Z,1.98
2022-10-07T17:27:01.752Z,4.15
2022-10-07T17:29:33.480Z,3.50
2022-10-07T17:32:02.805Z,2.10
2022-10-07T17:34:34.328Z,2.30
2022-10-07T17:37:04.410Z,2.13
2022-10-07T17:39:33.460Z,2.97
2022-10-07T17:42:02.463Z,2.53
2022-10-07T17:44:32.092Z,2.63
2022-10-07T17:47:03.913Z,3.13
2022-10-07T17:49:32.895Z,3.65
2022-10-07T17:52:03.201Z,2.58
2022-10-07T17:54:32.155Z,4.35
2022-10-07T17:57:01.178Z,2.90
2022-10-07T17:59:29.923Z,3.33
2022-10-07T18:01:58.873Z,4.18
2022-10-07T18:04:27.895Z,3.15
2022-10-07T18:06:58.320Z,5.63
2022-10-07T18:09:28.593Z,3.75
2022-10-07T18:12:15.000Z,4.07
2022-10-07T18:15:01.419Z,4.05
2022-10-07T18:17:32.585Z,3.55
2022-10-07T18:20:07.271Z,6.28
2022-10-07T18:22:37.647Z,4.53
2022-10-07T18:25:11.944Z,5.00
2022-10-07T18:27:41.557Z,5.78
2022-10-07T18:30:11.643Z,5.75
2022-10-07T18:32:40.823Z,5.93
2022-10-07T18:35:10.328Z,3.90
2022-10-07T18:37:39.424Z,6.28
2022-10-07T18:40:11.098Z,3.08
2022-10-07T18:42:40.495Z,4.30
2022-10-07T18:45:10.524Z,6.18
2022-10-07T18:47:39.617Z,3.90
2022-10-07T18:50:09.099Z,4.53
2022-10-07T18:52:38.015Z,5.97
2022-10-07T18:55:07.449Z,4.38
2022-10-07T18:57:37.643Z,6.05
2022-10-07T19:00:08.097Z,5.18
2022-10-07T19:02:37.304Z,4.68
2022-10-07T19:05:06.948Z,4.90
2022-10-07T19:07:35.653Z,6.93
2022-10-07T19:10:04.741Z,6.38
2022-10-07T19:12:51.046Z,5.95
2022-10-07T19:15:21.445Z,3.80
2022-10-07T19:17:50.710Z,4.50
2022-10-07T19:20:19.738Z,5.32
2022-10-07T19:22:48.610Z,5.55
2022-10-07T19:25:35.137Z,6.68
2022-10-07T19:28:04.060Z,6.38
2022-10-07T19:30:36.034Z,5.32
2022-10-07T19:33:05.217Z,5.45
2022-10-07T19:35:35.748Z,5.82
2022-10-07T19:38:06.170Z,5.57
2022-10-07T19:40:40.042Z,5.53
2022-10-07T19:43:10.316Z,5.80
2022-10-07T19:45:42.150Z,4.80
2022-10-07T19:48:14.669Z,5.72
2022-10-07T19:50:43.670Z,6.15
2022-10-07T19:53:12.386Z,6.65
2022-10-07T19:55:46.447Z,3.53
2022-10-07T19:58:17.366Z,4.75
2022-10-07T20:00:47.539Z,5.65
2022-10-07T20:03:16.566Z,5.82
2022-10-07T20:05:45.566Z,5.00
2022-10-07T20:08:14.650Z,5.68
2022-10-07T20:10:44.662Z,4.75
2022-10-07T20:13:14.617Z,4.47
2022-10-07T20:15:43.793Z,5.38
2022-10-07T20:18:14.259Z,6.50
2022-10-07T20:20:43.601Z,5.93
2022-10-07T20:23:12.426Z,6.75
2022-10-07T20:25:41.910Z,5.63
2022-10-07T20:28:10.788Z,4.35
2022-10-07T20:30:40.805Z,6.95
2022-10-07T20:33:10.976Z,4.90
2022-10-07T20:35:41.189Z,6.57
2022-10-07T20:38:09.905Z,5.40
2022-10-07T20:40:57.439Z,4.97
2022-10-07T20:43:26.666Z,5.07
2022-10-07T20:46:00.431Z,5.60
2022-10-07T20:48:31.915Z,5.10
2022-10-07T20:51:08.441Z,5.18
2022-10-07T20:53:37.351Z,6.18
2022-10-07T20:56:06.669Z,4.43
2022-10-07T20:58:37.533Z,5.03
2022-10-07T21:01:08.769Z,4.35
2022-10-07T21:03:38.373Z,6.53
2022-10-07T21:06:09.514Z,4.38
2022-10-07T21:08:38.887Z,3.63
2022-10-07T21:11:08.177Z,5.25
2022-10-07T21:13:36.906Z,4.85
2022-10-07T21:16:06.659Z,6.20
2022-10-07T21:18:36.411Z,3.83
2022-10-07T21:21:07.908Z,4.75
2022-10-07T21:23:38.419Z,7.28
2022-10-07T21:26:08.147Z,8.55
2022-10-07T21:28:37.911Z,6.03
2022-10-07T21:31:09.577Z,5.18
2022-10-07T21:33:40.215Z,7.82
2022-10-07T21:36:12.360Z,5.40
2022-10-07T21:38:42.550Z,7.57
2022-10-07T21:41:16.563Z,6.03
2022-10-07T21:43:50.401Z,5.88
2022-10-07T21:46:19.698Z,5.30
2022-10-07T21:48:48.645Z,5.68
2022-10-07T21:51:17.924Z,6.75
2022-10-07T21:53:51.389Z,5.45
2022-10-07T21:56:20.286Z,5.65
2022-10-07T21:58:53.023Z,6.35
2022-10-07T22:01:23.809Z,5.72
2022-10-07T22:03:55.140Z,7.32
2022-10-07T22:06:45.175Z,6.25
2022-10-07T22:09:15.534Z,5.47
2022-10-07T22:11:44.249Z,4.43
2022-10-07T22:14:14.305Z,4.95
2022-10-07T22:16:48.353Z,6.35
2022-10-07T22:19:17.792Z,5.60
2022-10-07T22:21:46.755Z,3.03
2022-10-07T22:24:17.237Z,4.35
2022-10-07T22:26:47.859Z,5.55
2022-10-07T22:29:21.860Z,4.95
2022-10-07T22:31:51.106Z,6.82
2022-10-07T22:34:37.619Z,6.03
2022-10-07T22:37:07.607Z,7.60
2022-10-07T22:39:37.989Z,6.32
2022-10-07T22:42:07.101Z,7.90
2022-10-07T22:44:35.736Z,5.25
2022-10-07T22:47:04.777Z,6.03
2022-10-07T22:49:33.956Z,5.35
2022-10-07T22:52:02.884Z,5.10
2022-10-07T22:54:31.834Z,5.93
2022-10-07T22:57:02.377Z,5.57
2022-10-07T22:59:31.440Z,6.90
2022-10-07T23:02:00.451Z,3.95
2022-10-07T23:04:29.454Z,6.50
2022-10-07T23:06:59.545Z,4.60
2022-10-07T23:09:28.514Z,5.00
2022-10-07T23:11:58.141Z,5.47
2022-10-07T23:14:28.422Z,3.65
2022-10-07T23:16:57.202Z,3.75
2022-10-07T23:19:26.247Z,5.47
2022-10-07T23:21:55.249Z,5.78
2022-10-07T23:24:24.374Z,4.82
2022-10-07T23:26:53.240Z,6.18
2022-10-07T23:29:22.104Z,4.45
2022-10-07T23:31:52.418Z,4.97
2022-10-07T23:34:21.372Z,5.38
2022-10-07T23:36:50.344Z,5.95
2022-10-07T23:39:20.071Z,4.53
2022-10-07T23:41:48.765Z,4.72
2022-10-07T23:44:18.581Z,4.38
2022-10-07T23:46:47.563Z,10.85
2022-10-07T23:49:18.014Z,17.60
2022-10-07T23:51:47.605Z,20.42
2022-10-07T23:54:16.399Z,18.65
2022-10-07T23:56:45.299Z,21.90
2022-10-07T23:59:14.598Z,19.27
